sensor_id;sensor_type;location;lat;lon;timestamp;temperature;humidity
44509;DHT22;30214;52.246;14.408;2024-02-26T00:02:15;0.90;99.90
44509;DHT22;30214;52.246;14.408;2024-02-26T00:04:43;0.90;99.90
44509;DHT22;30214;52.246;14.408;2024-02-26T00:07:10;0.90;99.90
44509;DHT22;30214;52.246;14.408;2024-02-26T00:09:37;0.90;99.90
44509;DHT22;30214;52.246;14.408;2024-02-26T00:12:06;0.90;99.90
44509;DHT22;30214;52.246;14.408;2024-02-26T00:14:33;0.90;99.90
44509;DHT22;30214;52.246;14.408;2024-02-26T00:17:01;0.80;99.90
44509;DHT22;30214;52.246;14.408;2024-02-26T00:19:29;0.80;99.90
44509;DHT22;30214;52.246;14.408;2024-02-26T00:21:56;0.80;99.90
44509;DHT22;30214;52.246;14.408;2024-02-26T00:24:23;0.70;99.90
44509;DHT22;30214;52.246;14.408;2024-02-26T00:26:50;0.70;99.90
44509;DHT22;30214;52.246;14.408;2024-02-26T00:29:21;0.70;99.90
44509;DHT22;30214;52.246;14.408;2024-02-26T00:31:48;0.70;99.90
44509;DHT22;30214;52.246;14.408;2024-02-26T00:34:15;0.80;99.90
44509;DHT22;30214;52.246;14.408;2024-02-26T00:36:43;0.70;99.90
44509;DHT22;30214;52.246;14.408;2024-02-26T00:39:11;0.80;99.90
44509;DHT22;30214;52.246;14.408;2024-02-26T00:41:39;0.80;99.90
44509;DHT22;30214;52.246;14.408;2024-02-26T00:44:07;0.60;99.90
44509;DHT22;30214;52.246;14.408;2024-02-26T00:46:35;0.50;99.90
44509;DHT22;30214;52.246;14.408;2024-02-26T00:49:03;0.30;99.90
44509;DHT22;30214;52.246;14.408;2024-02-26T00:51:31;0.30;99.90
44509;DHT22;30214;52.246;14.408;2024-02-26T00:53:58;0.30;99.90
44509;DHT22;30214;52.246;14.408;2024-02-26T00:56:25;0.30;99.90
44509;DHT22;30214;52.246;14.408;2024-02-26T00:58:52;0.30;99.90
44509;DHT22;30214;52.246;14.408;2024-02-26T01:01:20;0.30;99.90
44509;DHT22;30214;52.246;14.408;2024-02-26T01:03:48;0.30;99.90
44509;DHT22;30214;52.246;14.408;2024-02-26T01:06:15;0.40;99.90
44509;DHT22;30214;52.246;14.408;2024-02-26T01:08:43;0.40;99.90
44509;DHT22;30214;52.246;14.408;2024-02-26T01:11:10;0.40;99.90
44509;DHT22;30214;52.246;14.408;2024-02-26T01:13:37;0.40;99.90
44509;DHT22;30214;52.246;14.408;2024-02-26T01:16:05;0.40;99.90
44509;DHT22;30214;52.246;14.408;2024-02-26T01:18:33;0.20;99.90
44509;DHT22;30214;52.246;14.408;2024-02-26T01:21:01;0.00;99.90
44509;DHT22;30214;52.246;14.408;2024-02-26T01:23:30;-0.20;99.90
44509;DHT22;30214;52.246;14.408;2024-02-26T01:25:57;-0.20;99.90
44509;DHT22;30214;52.246;14.408;2024-02-26T01:28:24;-0.10;99.90
44509;DHT22;30214;52.246;14.408;2024-02-26T01:30:51;0.00;99.90
44509;DHT22;30214;52.246;14.408;2024-02-26T01:33:18;0.10;99.90
44509;DHT22;30214;52.246;14.408;2024-02-26T01:35:46;0.10;99.90
44509;DHT22;30214;52.246;14.408;2024-02-26T01:38:14;0.00;99.90
44509;DHT22;30214;52.246;14.408;2024-02-26T01:40:42;0.00;99.90
44509;DHT22;30214;52.246;14.408;2024-02-26T01:43:09;0.00;99.90
44509;DHT22;30214;52.246;14.408;2024-02-26T01:45:36;0.00;99.90
44509;DHT22;30214;52.246;14.408;2024-02-26T01:48:04;0.10;99.90
44509;DHT22;30214;52.246;14.408;2024-02-26T01:50:32;0.10;99.90
44509;DHT22;30214;52.246;14.408;2024-02-26T01:53:01;0.10;99.90
44509;DHT22;30214;52.246;14.408;2024-02-26T01:55:30;0.10;99.90
44509;DHT22;30214;52.246;14.408;2024-02-26T01:57:57;0.10;99.90
44509;DHT22;30214;52.246;14.408;2024-02-26T02:00:24;0.10;99.90
44509;DHT22;30214;52.246;14.408;2024-02-26T02:02:52;0.10;99.90
44509;DHT22;30214;52.246;14.408;2024-02-26T02:05:20;0.00;99.90
44509;DHT22;30214;52.246;14.408;2024-02-26T02:07:48;0.10;99.90
44509;DHT22;30214;52.246;14.408;2024-02-26T02:10:17;0.10;99.90
44509;DHT22;30214;52.246;14.408;2024-02-26T02:12:49;0.10;99.90
44509;DHT22;30214;52.246;14.408;2024-02-26T02:15:17;0.00;99.90
44509;DHT22;30214;52.246;14.408;2024-02-26T02:17:45;0.00;99.90
44509;DHT22;30214;52.246;14.408;2024-02-26T02:20:16;0.00;99.90
44509;DHT22;30214;52.246;14.408;2024-02-26T02:22:46;0.00;99.90
44509;DHT22;30214;52.246;14.408;2024-02-26T02:25:13;0.00;99.90
44509;DHT22;30214;52.246;14.408;2024-02-26T02:27:41;0.00;99.90
44509;DHT22;30214;52.246;14.408;2024-02-26T02:30:09;-0.10;99.90
44509;DHT22;30214;52.246;14.408;2024-02-26T02:32:40;-0.10;99.90
44509;DHT22;30214;52.246;14.408;2024-02-26T02:35:08;0.00;99.90
44509;DHT22;30214;52.246;14.408;2024-02-26T02:37:35;-0.10;99.90
44509;DHT22;30214;52.246;14.408;2024-02-26T02:40:05;-0.10;99.90
44509;DHT22;30214;52.246;14.408;2024-02-26T02:42:33;-0.10;99.90
44509;DHT22;30214;52.246;14.408;2024-02-26T02:45:00;0.00;99.90
44509;DHT22;30214;52.246;14.408;2024-02-26T02:47:27;0.00;99.90
44509;DHT22;30214;52.246;14.408;2024-02-26T02:49:54;-0.20;99.90
44509;DHT22;30214;52.246;14.408;2024-02-26T02:52:22;-0.40;99.90
44509;DHT22;30214;52.246;14.408;2024-02-26T02:54:49;-0.40;99.90
44509;DHT22;30214;52.246;14.408;2024-02-26T02:57:18;-0.40;99.90
44509;DHT22;30214;52.246;14.408;2024-02-26T02:59:45;-0.40;99.90
44509;DHT22;30214;52.246;14.408;2024-02-26T03:02:13;-0.30;99.90
44509;DHT22;30214;52.246;14.408;2024-02-26T03:04:40;-0.50;99.90
44509;DHT22;30214;52.246;14.408;2024-02-26T03:07:07;-0.70;99.90
44509;DHT22;30214;52.246;14.408;2024-02-26T03:09:34;-0.60;99.90
44509;DHT22;30214;52.246;14.408;2024-02-26T03:12:02;-0.50;99.90
44509;DHT22;30214;52.246;14.408;2024-02-26T03:14:31;-0.50;99.90
44509;DHT22;30214;52.246;14.408;2024-02-26T03:16:58;-0.40;99.90
44509;DHT22;30214;52.246;14.408;2024-02-26T03:19:25;-0.50;99.90
44509;DHT22;30214;52.246;14.408;2024-02-26T03:21:52;-0.60;99.90
44509;DHT22;30214;52.246;14.408;2024-02-26T03:24:19;-0.60;99.90
44509;DHT22;30214;52.246;14.408;2024-02-26T03:26:47;-0.60;99.90
44509;DHT22;30214;52.246;14.408;2024-02-26T03:29:14;-0.50;99.90
44509;DHT22;30214;52.246;14.408;2024-02-26T03:31:42;-0.50;99.90
44509;DHT22;30214;52.246;14.408;2024-02-26T03:34:12;-0.40;99.90
44509;DHT22;30214;52.246;14.408;2024-02-26T03:36:40;-0.30;99.90
44509;DHT22;30214;52.246;14.408;2024-02-26T03:39:07;-0.30;99.90
44509;DHT22;30214;52.246;14.408;2024-02-26T03:41:35;-0.30;99.90
44509;DHT22;30214;52.246;14.408;2024-02-26T03:44:02;-0.40;99.90
44509;DHT22;30214;52.246;14.408;2024-02-26T03:46:31;-0.40;99.90
44509;DHT22;30214;52.246;14.408;2024-02-26T03:48:59;-0.50;99.90
44509;DHT22;30214;52.246;14.408;2024-02-26T03:51:26;-0.40;99.90
44509;DHT22;30214;52.246;14.408;2024-02-26T03:53:56;-0.40;99.90
44509;DHT22;30214;52.246;14.408;2024-02-26T03:56:25;-0.40;99.90
44509;DHT22;30214;52.246;14.408;2024-02-26T03:58:53;-0.40;99.90
44509;DHT22;30214;52.246;14.408;2024-02-26T04:01:20;-0.40;99.90
44509;DHT22;30214;52.246;14.408;2024-02-26T04:03:50;-0.40;99.90
44509;DHT22;30214;52.246;14.408;2024-02-26T04:06:19;-0.30;99.90
44509;DHT22;30214;52.246;14.408;2024-02-26T04:08:48;-0.30;99.90
44509;DHT22;30214;52.246;14.408;2024-02-26T04:11:15;-0.40;99.90
44509;DHT22;30214;52.246;14.408;2024-02-26T04:13:44;-0.40;99.90
44509;DHT22;30214;52.246;14.408;2024-02-26T04:16:14;-0.40;99.90
44509;DHT22;30214;52.246;14.408;2024-02-26T04:18:45;-0.30;99.90
44509;DHT22;30214;52.246;14.408;2024-02-26T04:21:12;-0.30;99.90
44509;DHT22;30214;52.246;14.408;2024-02-26T04:23:44;-0.40;99.90
44509;DHT22;30214;52.246;14.408;2024-02-26T04:26:11;-0.40;99.90
44509;DHT22;30214;52.246;14.408;2024-02-26T04:28:38;-0.30;99.90
44509;DHT22;30214;52.246;14.408;2024-02-26T04:31:05;-0.20;99.90
44509;DHT22;30214;52.246;14.408;2024-02-26T04:33:34;-0.20;99.90
44509;DHT22;30214;52.246;14.408;2024-02-26T04:36:01;-0.20;99.90
44509;DHT22;30214;52.246;14.408;2024-02-26T04:38:29;-0.20;99.90
44509;DHT22;30214;52.246;14.408;2024-02-26T04:40:58;-0.20;99.90
44509;DHT22;30214;52.246;14.408;2024-02-26T04:43:25;-0.10;99.90
44509;DHT22;30214;52.246;14.408;2024-02-26T04:45:52;-0.10;99.90
44509;DHT22;30214;52.246;14.408;2024-02-26T04:48:19;-0.10;99.90
44509;DHT22;30214;52.246;14.408;2024-02-26T04:50:47;-0.10;99.90
44509;DHT22;30214;52.246;14.408;2024-02-26T04:53:14;0.00;99.90
44509;DHT22;30214;52.246;14.408;2024-02-26T04:55:41;-0.10;99.90
44509;DHT22;30214;52.246;14.408;2024-02-26T04:58:10;-0.10;99.90
44509;DHT22;30214;52.246;14.408;2024-02-26T05:00:37;-0.20;99.90
44509;DHT22;30214;52.246;14.408;2024-02-26T05:03:04;-0.10;99.90
44509;DHT22;30214;52.246;14.408;2024-02-26T05:05:33;-0.20;99.90
44509;DHT22;30214;52.246;14.408;2024-02-26T05:08:00;-0.20;99.90
44509;DHT22;30214;52.246;14.408;2024-02-26T05:10:28;-0.20;99.90
44509;DHT22;30214;52.246;14.408;2024-02-26T05:12:56;-0.20;99.90
44509;DHT22;30214;52.246;14.408;2024-02-26T05:15:25;-0.20;99.90
44509;DHT22;30214;52.246;14.408;2024-02-26T05:17:55;-0.20;99.90
44509;DHT22;30214;52.246;14.408;2024-02-26T05:20:23;-0.20;99.90
44509;DHT22;30214;52.246;14.408;2024-02-26T05:22:50;-0.30;99.90
44509;DHT22;30214;52.246;14.408;2024-02-26T05:25:17;-0.30;99.90
44509;DHT22;30214;52.246;14.408;2024-02-26T05:27:45;-0.20;99.90
44509;DHT22;30214;52.246;14.408;2024-02-26T05:30:12;-0.20;99.90
44509;DHT22;30214;52.246;14.408;2024-02-26T05:32:42;-0.20;99.90
44509;DHT22;30214;52.246;14.408;2024-02-26T05:35:09;-0.30;99.90
44509;DHT22;30214;52.246;14.408;2024-02-26T05:37:36;-0.30;99.90
44509;DHT22;30214;52.246;14.408;2024-02-26T05:40:10;-0.30;99.90
44509;DHT22;30214;52.246;14.408;2024-02-26T05:42:38;-0.30;99.90
44509;DHT22;30214;52.246;14.408;2024-02-26T05:45:06;-0.30;99.90
44509;DHT22;30214;52.246;14.408;2024-02-26T05:47:34;-0.30;99.90
44509;DHT22;30214;52.246;14.408;2024-02-26T05:50:04;-0.40;99.90
44509;DHT22;30214;52.246;14.408;2024-02-26T05:52:33;-0.30;99.90
44509;DHT22;30214;52.246;14.408;2024-02-26T05:55:00;-0.30;99.90
44509;DHT22;30214;52.246;14.408;2024-02-26T05:57:28;-0.20;99.90
44509;DHT22;30214;52.246;14.408;2024-02-26T05:59:59;-0.20;99.90
44509;DHT22;30214;52.246;14.408;2024-02-26T06:02:37;-0.10;99.90
44509;DHT22;30214;52.246;14.408;2024-02-26T06:05:07;-0.10;99.90
44509;DHT22;30214;52.246;14.408;2024-02-26T06:07:40;-0.10;99.90
44509;DHT22;30214;52.246;14.408;2024-02-26T06:10:16;-0.10;99.90
44509;DHT22;30214;52.246;14.408;2024-02-26T06:12:48;0.00;99.90
44509;DHT22;30214;52.246;14.408;2024-02-26T06:15:18;-0.10;99.90
44509;DHT22;30214;52.246;14.408;2024-02-26T06:17:47;-0.10;99.90
44509;DHT22;30214;52.246;14.408;2024-02-26T06:20:20;0.00;99.90
44509;DHT22;30214;52.246;14.408;2024-02-26T06:22:51;0.00;99.90
44509;DHT22;30214;52.246;14.408;2024-02-26T06:25:21;0.00;99.90
44509;DHT22;30214;52.246;14.408;2024-02-26T06:27:51;0.10;99.90
44509;DHT22;30214;52.246;14.408;2024-02-26T06:30:22;0.10;99.90
44509;DHT22;30214;52.246;14.408;2024-02-26T06:32:52;0.10;99.90
44509;DHT22;30214;52.246;14.408;2024-02-26T06:35:22;0.10;99.90
44509;DHT22;30214;52.246;14.408;2024-02-26T06:37:53;0.10;99.90
44509;DHT22;30214;52.246;14.408;2024-02-26T06:40:29;0.20;99.90
44509;DHT22;30214;52.246;14.408;2024-02-26T06:42:59;0.20;99.90
44509;DHT22;30214;52.246;14.408;2024-02-26T06:45:32;0.30;99.90
44509;DHT22;30214;52.246;14.408;2024-02-26T06:48:04;0.30;99.90
44509;DHT22;30214;52.246;14.408;2024-02-26T06:50:50;0.40;99.90
44509;DHT22;30214;52.246;14.408;2024-02-26T06:53:22;0.40;99.90
44509;DHT22;30214;52.246;14.408;2024-02-26T06:55:53;0.30;99.90
44509;DHT22;30214;52.246;14.408;2024-02-26T06:58:23;0.40;99.90
44509;DHT22;30214;52.246;14.408;2024-02-26T07:00:51;0.40;99.90
44509;DHT22;30214;52.246;14.408;2024-02-26T07:03:22;0.50;99.90
44509;DHT22;30214;52.246;14.408;2024-02-26T07:05:54;0.70;99.90
44509;DHT22;30214;52.246;14.408;2024-02-26T07:08:26;0.70;99.90
44509;DHT22;30214;52.246;14.408;2024-02-26T07:11:00;0.80;99.90
44509;DHT22;30214;52.246;14.408;2024-02-26T07:13:32;0.90;99.90
44509;DHT22;30214;52.246;14.408;2024-02-26T07:16:09;0.90;99.90
44509;DHT22;30214;52.246;14.408;2024-02-26T07:18:38;0.90;99.90
44509;DHT22;30214;52.246;14.408;2024-02-26T07:21:13;1.00;99.90
44509;DHT22;30214;52.246;14.408;2024-02-26T07:23:43;1.00;99.90
44509;DHT22;30214;52.246;14.408;2024-02-26T07:26:17;1.10;99.90
44509;DHT22;30214;52.246;14.408;2024-02-26T07:28:49;1.30;99.90
44509;DHT22;30214;52.246;14.408;2024-02-26T07:31:22;1.50;99.90
44509;DHT22;30214;52.246;14.408;2024-02-26T07:33:58;1.60;99.90
44509;DHT22;30214;52.246;14.408;2024-02-26T07:36:28;1.80;99.90
44509;DHT22;30214;52.246;14.408;2024-02-26T07:39:00;1.90;99.90
44509;DHT22;30214;52.246;14.408;2024-02-26T07:41:29;2.00;99.90
44509;DHT22;30214;52.246;14.408;2024-02-26T07:43:59;2.10;99.90
44509;DHT22;30214;52.246;14.408;2024-02-26T07:46:27;2.30;99.90
44509;DHT22;30214;52.246;14.408;2024-02-26T07:48:58;2.40;99.90
44509;DHT22;30214;52.246;14.408;2024-02-26T07:51:37;2.40;99.90
44509;DHT22;30214;52.246;14.408;2024-02-26T07:54:07;2.60;99.90
44509;DHT22;30214;52.246;14.408;2024-02-26T07:56:43;2.60;99.90
44509;DHT22;30214;52.246;14.408;2024-02-26T07:59:12;2.60;99.90
44509;DHT22;30214;52.246;14.408;2024-02-26T08:01:49;2.60;99.90
44509;DHT22;30214;52.246;14.408;2024-02-26T08:04:20;2.70;99.90
44509;DHT22;30214;52.246;14.408;2024-02-26T08:06:51;2.80;99.90
44509;DHT22;30214;52.246;14.408;2024-02-26T08:09:22;2.90;99.90
44509;DHT22;30214;52.246;14.408;2024-02-26T08:11:51;3.10;99.90
44509;DHT22;30214;52.246;14.408;2024-02-26T08:14:20;3.10;99.90
44509;DHT22;30214;52.246;14.408;2024-02-26T08:17:12;3.20;99.90
44509;DHT22;30214;52.246;14.408;2024-02-26T08:19:42;3.30;99.90
44509;DHT22;30214;52.246;14.408;2024-02-26T08:22:13;3.40;99.90
44509;DHT22;30214;52.246;14.408;2024-02-26T08:24:44;3.60;99.90
44509;DHT22;30214;52.246;14.408;2024-02-26T08:27:13;3.80;99.90
44509;DHT22;30214;52.246;14.408;2024-02-26T08:29:47;4.00;99.90
44509;DHT22;30214;52.246;14.408;2024-02-26T08:32:23;4.10;99.90
44509;DHT22;30214;52.246;14.408;2024-02-26T08:34:52;4.40;99.90
44509;DHT22;30214;52.246;14.408;2024-02-26T08:37:24;4.50;99.90
44509;DHT22;30214;52.246;14.408;2024-02-26T08:39:54;4.70;99.90
44509;DHT22;30214;52.246;14.408;2024-02-26T08:42:27;4.80;99.90
44509;DHT22;30214;52.246;14.408;2024-02-26T08:44:57;4.90;99.90
44509;DHT22;30214;52.246;14.408;2024-02-26T08:47:31;5.10;99.90
44509;DHT22;30214;52.246;14.408;2024-02-26T08:50:06;5.20;99.90
44509;DHT22;30214;52.246;14.408;2024-02-26T08:52:38;5.20;99.90
44509;DHT22;30214;52.246;14.408;2024-02-26T08:55:09;5.20;99.90
44509;DHT22;30214;52.246;14.408;2024-02-26T08:57:43;5.20;99.90
44509;DHT22;30214;52.246;14.408;2024-02-26T09:00:13;5.30;99.90
44509;DHT22;30214;52.246;14.408;2024-02-26T09:02:48;5.60;99.90
44509;DHT22;30214;52.246;14.408;2024-02-26T09:05:20;5.70;99.90
44509;DHT22;30214;52.246;14.408;2024-02-26T09:07:51;5.90;99.90
44509;DHT22;30214;52.246;14.408;2024-02-26T09:10:19;5.90;99.90
44509;DHT22;30214;52.246;14.408;2024-02-26T09:12:54;6.00;99.90
44509;DHT22;30214;52.246;14.408;2024-02-26T09:15:26;5.90;99.90
44509;DHT22;30214;52.246;14.408;2024-02-26T09:18:00;6.00;99.90
44509;DHT22;30214;52.246;14.408;2024-02-26T09:20:29;6.00;99.90
44509;DHT22;30214;52.246;14.408;2024-02-26T09:22:59;6.00;99.90
44509;DHT22;30214;52.246;14.408;2024-02-26T09:25:29;6.00;99.90
44509;DHT22;30214;52.246;14.408;2024-02-26T09:28:06;6.30;99.90
44509;DHT22;30214;52.246;14.408;2024-02-26T09:30:44;6.50;99.90
44509;DHT22;30214;52.246;14.408;2024-02-26T09:33:11;6.60;99.90
44509;DHT22;30214;52.246;14.408;2024-02-26T09:35:40;6.70;99.90
44509;DHT22;30214;52.246;14.408;2024-02-26T09:38:09;6.70;99.90
44509;DHT22;30214;52.246;14.408;2024-02-26T09:40:36;6.80;99.90
44509;DHT22;30214;52.246;14.408;2024-02-26T09:43:05;7.00;99.90
44509;DHT22;30214;52.246;14.408;2024-02-26T09:45:33;7.20;99.90
44509;DHT22;30214;52.246;14.408;2024-02-26T09:48:03;7.50;99.90
44509;DHT22;30214;52.246;14.408;2024-02-26T09:50:32;7.50;99.90
44509;DHT22;30214;52.246;14.408;2024-02-26T09:53:00;7.70;99.90
44509;DHT22;30214;52.246;14.408;2024-02-26T09:55:30;7.70;99.90
44509;DHT22;30214;52.246;14.408;2024-02-26T09:57:57;7.80;99.90
44509;DHT22;30214;52.246;14.408;2024-02-26T10:00:27;7.90;99.90
44509;DHT22;30214;52.246;14.408;2024-02-26T10:03:02;8.00;99.90
44509;DHT22;30214;52.246;14.408;2024-02-26T10:05:32;8.10;99.90
44509;DHT22;30214;52.246;14.408;2024-02-26T10:08:01;8.10;99.90
44509;DHT22;30214;52.246;14.408;2024-02-26T10:10:30;8.00;99.90
44509;DHT22;30214;52.246;14.408;2024-02-26T10:13:00;7.90;99.90
44509;DHT22;30214;52.246;14.408;2024-02-26T10:15:27;8.00;99.90
44509;DHT22;30214;52.246;14.408;2024-02-26T10:17:54;7.90;99.90
44509;DHT22;30214;52.246;14.408;2024-02-26T10:20:22;7.90;99.90
44509;DHT22;30214;52.246;14.408;2024-02-26T10:22:51;8.10;99.90
44509;DHT22;30214;52.246;14.408;2024-02-26T10:25:19;8.30;99.90
44509;DHT22;30214;52.246;14.408;2024-02-26T10:27:49;8.40;99.90
44509;DHT22;30214;52.246;14.408;2024-02-26T10:30:17;8.60;99.90
44509;DHT22;30214;52.246;14.408;2024-02-26T10:32:45;8.70;99.90
44509;DHT22;30214;52.246;14.408;2024-02-26T10:35:13;8.80;99.90
44509;DHT22;30214;52.246;14.408;2024-02-26T10:37:41;8.90;99.90
44509;DHT22;30214;52.246;14.408;2024-02-26T10:40:10;9.00;99.90
44509;DHT22;30214;52.246;14.408;2024-02-26T10:42:37;9.10;99.90
44509;DHT22;30214;52.246;14.408;2024-02-26T10:45:08;9.10;99.90
44509;DHT22;30214;52.246;14.408;2024-02-26T10:47:36;9.10;99.90
44509;DHT22;30214;52.246;14.408;2024-02-26T10:50:05;9.00;99.90
44509;DHT22;30214;52.246;14.408;2024-02-26T10:52:34;8.90;99.90
44509;DHT22;30214;52.246;14.408;2024-02-26T10:55:03;9.00;99.90
44509;DHT22;30214;52.246;14.408;2024-02-26T10:57:34;9.20;99.90
44509;DHT22;30214;52.246;14.408;2024-02-26T11:00:07;9.40;99.90
44509;DHT22;30214;52.246;14.408;2024-02-26T11:02:38;9.50;99.90
44509;DHT22;30214;52.246;14.408;2024-02-26T11:05:08;9.50;99.90
44509;DHT22;30214;52.246;14.408;2024-02-26T11:07:36;9.60;99.90
44509;DHT22;30214;52.246;14.408;2024-02-26T11:10:05;9.60;99.90
44509;DHT22;30214;52.246;14.408;2024-02-26T11:12:34;9.60;99.90
44509;DHT22;30214;52.246;14.408;2024-02-26T11:15:03;9.60;99.90
44509;DHT22;30214;52.246;14.408;2024-02-26T11:17:33;9.70;99.90
44509;DHT22;30214;52.246;14.408;2024-02-26T11:20:02;9.70;99.90
44509;DHT22;30214;52.246;14.408;2024-02-26T11:22:31;9.70;99.90
44509;DHT22;30214;52.246;14.408;2024-02-26T11:24:59;9.70;99.90
44509;DHT22;30214;52.246;14.408;2024-02-26T11:27:30;9.80;99.90
44509;DHT22;30214;52.246;14.408;2024-02-26T11:30:01;9.80;99.90
44509;DHT22;30214;52.246;14.408;2024-02-26T11:32:32;10.00;99.90
44509;DHT22;30214;52.246;14.408;2024-02-26T11:35:01;10.10;99.90
44509;DHT22;30214;52.246;14.408;2024-02-26T11:37:28;10.30;99.90
44509;DHT22;30214;52.246;14.408;2024-02-26T11:39:59;10.40;99.90
44509;DHT22;30214;52.246;14.408;2024-02-26T11:42:27;10.50;99.90
44509;DHT22;30214;52.246;14.408;2024-02-26T11:44:55;10.60;99.90
44509;DHT22;30214;52.246;14.408;2024-02-26T11:47:27;10.50;99.90
44509;DHT22;30214;52.246;14.408;2024-02-26T11:49:56;10.60;99.90
44509;DHT22;30214;52.246;14.408;2024-02-26T11:52:23;10.60;99.90
44509;DHT22;30214;52.246;14.408;2024-02-26T11:54:51;10.60;99.90
44509;DHT22;30214;52.246;14.408;2024-02-26T11:57:23;10.60;99.90
44509;DHT22;30214;52.246;14.408;2024-02-26T11:59:54;10.80;99.90
44509;DHT22;30214;52.246;14.408;2024-02-26T12:02:41;10.80;99.90
44509;DHT22;30214;52.246;14.408;2024-02-26T12:05:15;10.90;99.90
44509;DHT22;30214;52.246;14.408;2024-02-26T12:07:47;10.90;99.90
44509;DHT22;30214;52.246;14.408;2024-02-26T12:10:16;11.00;99.90
44509;DHT22;30214;52.246;14.408;2024-02-26T12:12:54;11.00;99.90
44509;DHT22;30214;52.246;14.408;2024-02-26T12:15:23;10.80;99.90
44509;DHT22;30214;52.246;14.408;2024-02-26T12:17:52;10.70;99.90
44509;DHT22;30214;52.246;14.408;2024-02-26T12:20:21;10.80;99.90
44509;DHT22;30214;52.246;14.408;2024-02-26T12:22:50;10.90;99.90
44509;DHT22;30214;52.246;14.408;2024-02-26T12:25:22;10.90;99.90
44509;DHT22;30214;52.246;14.408;2024-02-26T12:27:50;10.90;99.90
44509;DHT22;30214;52.246;14.408;2024-02-26T12:30:18;11.00;99.90
44509;DHT22;30214;52.246;14.408;2024-02-26T12:32:45;11.00;99.90
44509;DHT22;30214;52.246;14.408;2024-02-26T12:35:14;11.00;99.90
44509;DHT22;30214;52.246;14.408;2024-02-26T12:37:43;11.00;99.90
44509;DHT22;30214;52.246;14.408;2024-02-26T12:40:11;11.00;99.90
44509;DHT22;30214;52.246;14.408;2024-02-26T12:42:39;11.00;99.90
44509;DHT22;30214;52.246;14.408;2024-02-26T12:45:08;11.00;99.90
44509;DHT22;30214;52.246;14.408;2024-02-26T12:47:37;11.00;99.90
44509;DHT22;30214;52.246;14.408;2024-02-26T12:50:07;11.00;99.90
44509;DHT22;30214;52.246;14.408;2024-02-26T12:52:37;11.00;99.90
44509;DHT22;30214;52.246;14.408;2024-02-26T12:55:08;11.00;99.90
44509;DHT22;30214;52.246;14.408;2024-02-26T12:57:37;11.00;99.90
44509;DHT22;30214;52.246;14.408;2024-02-26T13:00:06;11.10;99.90
44509;DHT22;30214;52.246;14.408;2024-02-26T13:02:35;11.10;99.90
44509;DHT22;30214;52.246;14.408;2024-02-26T13:05:06;11.10;99.90
44509;DHT22;30214;52.246;14.408;2024-02-26T13:07:35;11.10;99.90
44509;DHT22;30214;52.246;14.408;2024-02-26T13:10:11;11.20;99.90
44509;DHT22;30214;52.246;14.408;2024-02-26T13:12:43;11.30;99.90
44509;DHT22;30214;52.246;14.408;2024-02-26T13:15:15;11.30;99.90
44509;DHT22;30214;52.246;14.408;2024-02-26T13:17:43;11.20;99.90
44509;DHT22;30214;52.246;14.408;2024-02-26T13:20:11;11.10;99.90
44509;DHT22;30214;52.246;14.408;2024-02-26T13:22:39;11.10;99.90
44509;DHT22;30214;52.246;14.408;2024-02-26T13:25:07;11.10;99.90
44509;DHT22;30214;52.246;14.408;2024-02-26T13:27:36;11.20;99.90
44509;DHT22;30214;52.246;14.408;2024-02-26T13:30:05;11.20;99.90
44509;DHT22;30214;52.246;14.408;2024-02-26T13:32:37;11.20;99.90
44509;DHT22;30214;52.246;14.408;2024-02-26T13:35:06;11.10;99.90
44509;DHT22;30214;52.246;14.408;2024-02-26T13:37:35;11.10;99.90
44509;DHT22;30214;52.246;14.408;2024-02-26T13:40:07;10.90;99.90
44509;DHT22;30214;52.246;14.408;2024-02-26T13:42:37;10.90;99.90
44509;DHT22;30214;52.246;14.408;2024-02-26T13:45:06;11.00;99.90
44509;DHT22;30214;52.246;14.408;2024-02-26T13:47:34;11.10;99.90
44509;DHT22;30214;52.246;14.408;2024-02-26T13:50:02;11.20;99.90
44509;DHT22;30214;52.246;14.408;2024-02-26T13:52:33;11.20;99.90
44509;DHT22;30214;52.246;14.408;2024-02-26T13:55:01;11.00;99.90
44509;DHT22;30214;52.246;14.408;2024-02-26T13:57:29;11.00;99.90
44509;DHT22;30214;52.246;14.408;2024-02-26T13:59:58;11.00;99.90
44509;DHT22;30214;52.246;14.408;2024-02-26T14:02:25;11.00;99.90
44509;DHT22;30214;52.246;14.408;2024-02-26T14:04:53;10.90;99.90
44509;DHT22;30214;52.246;14.408;2024-02-26T14:07:20;11.00;99.90
44509;DHT22;30214;52.246;14.408;2024-02-26T14:09:47;11.00;99.90
44509;DHT22;30214;52.246;14.408;2024-02-26T14:12:15;11.00;99.90
44509;DHT22;30214;52.246;14.408;2024-02-26T14:14:42;10.90;99.90
44509;DHT22;30214;52.246;14.408;2024-02-26T14:17:12;11.00;99.90
44509;DHT22;30214;52.246;14.408;2024-02-26T14:19:41;10.90;99.90
44509;DHT22;30214;52.246;14.408;2024-02-26T14:22:11;10.90;99.90
44509;DHT22;30214;52.246;14.408;2024-02-26T14:24:41;10.90;99.90
44509;DHT22;30214;52.246;14.408;2024-02-26T14:27:10;10.90;99.90
44509;DHT22;30214;52.246;14.408;2024-02-26T14:29:41;10.90;99.90
44509;DHT22;30214;52.246;14.408;2024-02-26T14:32:08;10.90;99.90
44509;DHT22;30214;52.246;14.408;2024-02-26T14:34:38;11.10;99.90
44509;DHT22;30214;52.246;14.408;2024-02-26T14:37:06;11.10;99.90
44509;DHT22;30214;52.246;14.408;2024-02-26T14:39:37;11.10;99.90
44509;DHT22;30214;52.246;14.408;2024-02-26T14:42:05;11.10;99.90
44509;DHT22;30214;52.246;14.408;2024-02-26T14:44:33;11.10;99.90
44509;DHT22;30214;52.246;14.408;2024-02-26T14:47:00;11.00;99.90
44509;DHT22;30214;52.246;14.408;2024-02-26T14:49:27;10.90;99.90
44509;DHT22;30214;52.246;14.408;2024-02-26T14:51:58;10.90;99.90
44509;DHT22;30214;52.246;14.408;2024-02-26T14:54:30;10.90;99.90
44509;DHT22;30214;52.246;14.408;2024-02-26T14:56:59;10.80;99.90
44509;DHT22;30214;52.246;14.408;2024-02-26T14:59:26;10.80;99.90
44509;DHT22;30214;52.246;14.408;2024-02-26T15:01:54;10.80;99.90
44509;DHT22;30214;52.246;14.408;2024-02-26T15:04:21;10.60;99.90
44509;DHT22;30214;52.246;14.408;2024-02-26T15:06:49;10.60;99.90
44509;DHT22;30214;52.246;14.408;2024-02-26T15:09:17;10.60;99.90
44509;DHT22;30214;52.246;14.408;2024-02-26T15:11:45;10.60;99.90
44509;DHT22;30214;52.246;14.408;2024-02-26T15:14:12;10.60;99.90
44509;DHT22;30214;52.246;14.408;2024-02-26T15:16:40;10.50;99.90
44509;DHT22;30214;52.246;14.408;2024-02-26T15:19:07;10.50;99.90
44509;DHT22;30214;52.246;14.408;2024-02-26T15:21:42;10.40;99.90
44509;DHT22;30214;52.246;14.408;2024-02-26T15:24:12;10.40;99.90
44509;DHT22;30214;52.246;14.408;2024-02-26T15:26:44;10.40;99.90
44509;DHT22;30214;52.246;14.408;2024-02-26T15:29:11;10.30;99.90
44509;DHT22;30214;52.246;14.408;2024-02-26T15:31:39;10.30;99.90
44509;DHT22;30214;52.246;14.408;2024-02-26T15:34:06;10.20;99.90
44509;DHT22;30214;52.246;14.408;2024-02-26T15:36:34;10.20;99.90